Time,TemperatureF,DewpointF,PressureIn,WindDirection,WindDirectionDegrees,WindSpeedMPH,WindSpeedGustMPH,Humidity,HourlyPrecipIn,Conditions,Clouds,dailyrainin,SolarRadiationWatts/m^2,SoftwareType,DateUTC
2013-07-05 00:02:00,72.0,36.0,-100.00,WSW,252,2.0,4.0,27,0.00,,,0.00,1.000000,,2013-07-05 06:02:00,
2013-07-05 00:13:00,72.0,36.0,-100.00,WSW,252,2.0,4.0,27,0.00,,,0.00,1.000000,,2013-07-05 06:13:00,
2013-07-05 00:23:00,72.0,36.0,-100.00,WSW,252,2.0,4.0,27,0.00,,,0.00,1.000000,,2013-07-05 06:23:00,
2013-07-05 00:34:00,72.0,36.0,-100.00,WSW,252,2.0,4.0,27,0.00,,,0.00,1.000000,,2013-07-05 06:34:00,
2013-07-05 01:02:00,73.0,37.0,-100.00,East,84,1.0,5.0,27,0.00,,,0.00,1.000000,,2013-07-05 07:02:00,
2013-07-05 01:12:00,73.0,37.0,-100.00,East,84,1.0,5.0,27,0.00,,,0.00,1.000000,,2013-07-05 07:12:00,
2013-07-05 01:23:00,73.0,37.0,-100.00,East,84,1.0,5.0,27,0.00,,,0.00,1.000000,,2013-07-05 07:23:00,
2013-07-05 01:33:00,73.0,37.0,-100.00,East,84,1.0,5.0,27,0.00,,,0.00,1.000000,,2013-07-05 07:33:00,
2013-07-05 02:02:00,72.0,37.0,-100.00,SW,230,5.0,10.0,28,0.00,,,0.00,1.000000,,2013-07-05 08:02:00,
2013-07-05 02:12:00,72.0,37.0,-100.00,SW,230,5.0,10.0,28,0.00,,,0.00,1.000000,,2013-07-05 08:12:00,
2013-07-05 02:22:00,72.0,37.0,-100.00,SW,230,5.0,10.0,28,0.00,,,0.00,1.000000,,2013-07-05 08:22:00,
2013-07-05 02:33:00,72.0,37.0,-100.00,SW,230,5.0,10.0,28,0.00,,,0.00,1.000000,,2013-07-05 08:33:00,
2013-07-05 03:05:00,70.0,40.0,-100.00,WSW,237,4.0,8.0,33,0.00,,,0.00,1.000000,,2013-07-05 09:05:00,
2013-07-05 03:14:00,70.0,40.0,-100.00,WSW,237,4.0,8.0,33,0.00,,,0.00,1.000000,,2013-07-05 09:14:00,
2013-07-05 03:24:00,70.0,40.0,-100.00,WSW,237,4.0,8.0,33,0.00,,,0.00,1.000000,,2013-07-05 09:24:00,
2013-07-05 04:05:00,68.0,41.0,-100.00,WSW,244,3.0,9.0,38,0.00,,,0.00,1.000000,,2013-07-05 10:05:00,
2013-07-05 04:15:00,68.0,41.0,-100.00,WSW,244,3.0,9.0,38,0.00,,,0.00,1.000000,,2013-07-05 10:15:00,
2013-07-05 04:23:00,68.0,41.0,-100.00,WSW,244,3.0,9.0,38,0.00,,,0.00,1.000000,,2013-07-05 10:23:00,
2013-07-05 04:35:00,68.0,41.0,-100.00,WSW,244,3.0,9.0,38,0.00,,,0.00,1.000000,,2013-07-05 10:35:00,
2013-07-05 05:05:00,68.0,41.0,-100.00,West,275,5.0,9.0,37,0.00,,,0.00,1.000000,,2013-07-05 11:05:00,
2013-07-05 05:14:00,68.0,41.0,-100.00,West,275,5.0,9.0,37,0.00,,,0.00,1.000000,,2013-07-05 11:14:00,
2013-07-05 05:23:00,68.0,41.0,-100.00,West,275,5.0,9.0,37,0.00,,,0.00,1.000000,,2013-07-05 11:23:00,
2013-07-05 05:35:00,68.0,41.0,-100.00,West,275,5.0,9.0,37,0.00,,,0.00,1.000000,,2013-07-05 11:35:00,
2013-07-05 06:05:00,69.0,40.0,-100.00,WNW,284,7.0,16.0,35,0.00,,,0.00,1.000000,,2013-07-05 12:05:00,
2013-07-05 06:13:00,69.0,40.0,-100.00,WNW,284,7.0,16.0,35,0.00,,,0.00,1.000000,,2013-07-05 12:13:00,
2013-07-05 06:24:00,69.0,40.0,-100.00,WNW,284,7.0,16.0,35,0.00,,,0.00,1.000000,,2013-07-05 12:24:00,
2013-07-05 06:33:00,69.0,40.0,-100.00,WNW,284,7.0,16.0,35,0.00,,,0.00,1.000000,,2013-07-05 12:33:00,
2013-07-05 07:05:00,70.0,41.0,-100.00,NNE,12,9.0,21.0,35,0.00,,,0.00,1.000000,,2013-07-05 13:05:00,
2013-07-05 07:13:00,70.0,41.0,-100.00,NNE,12,9.0,21.0,35,0.00,,,0.00,1.000000,,2013-07-05 13:13:00,
2013-07-05 07:23:00,70.0,41.0,-100.00,NNE,12,9.0,21.0,35,0.00,,,0.00,1.000000,,2013-07-05 13:23:00,
2013-07-05 07:35:00,70.0,41.0,-100.00,NNE,12,9.0,21.0,35,0.00,,,0.00,1.000000,,2013-07-05 13:35:00,
2013-07-05 08:06:00,68.0,39.0,-100.00,SSE,168,0.0,13.0,35,0.00,,,0.00,23.000000,,2013-07-05 14:06:00,
2013-07-05 08:13:00,68.0,39.0,-100.00,SSE,168,0.0,13.0,35,0.00,,,0.00,23.000000,,2013-07-05 14:13:00,
2013-07-05 08:24:00,68.0,39.0,-100.00,SSE,168,0.0,13.0,35,0.00,,,0.00,23.000000,,2013-07-05 14:24:00,
2013-07-05 08:35:00,68.0,39.0,-100.00,SSE,168,0.0,13.0,35,0.00,,,0.00,23.000000,,2013-07-05 14:35:00,
2013-07-05 09:05:00,79.0,41.0,-100.00,WSW,242,6.0,10.0,26,0.00,,,0.00,233.000000,,2013-07-05 15:05:00,
2013-07-05 09:13:00,79.0,41.0,-100.00,WSW,242,6.0,10.0,26,0.00,,,0.00,233.000000,,2013-07-05 15:13:00,
2013-07-05 09:22:00,79.0,41.0,-100.00,WSW,242,6.0,10.0,26,0.00,,,0.00,233.000000,,2013-07-05 15:22:00,
2013-07-05 09:33:00,79.0,41.0,-100.00,WSW,242,6.0,10.0,26,0.00,,,0.00,233.000000,,2013-07-05 15:33:00,
2013-07-05 10:01:00,79.0,43.0,-100.00,WSW,241,8.0,14.0,28,0.00,,,0.00,364.000000,,2013-07-05 16:01:00,
2013-07-05 10:11:00,79.0,43.0,-100.00,WSW,241,8.0,14.0,28,0.00,,,0.00,364.000000,,2013-07-05 16:11:00,
2013-07-05 11:01:00,78.0,46.0,-100.00,SW,234,10.0,17.0,32,0.00,,,0.00,463.000000,,2013-07-05 17:01:00,
2013-07-05 11:12:00,78.0,46.0,-100.00,SW,234,10.0,17.0,32,0.00,,,0.00,463.000000,,2013-07-05 17:12:00,
2013-07-05 11:22:00,78.0,46.0,-100.00,SW,234,10.0,17.0,32,0.00,,,0.00,463.000000,,2013-07-05 17:22:00,
2013-07-05 11:32:00,78.0,46.0,-100.00,SW,234,10.0,17.0,32,0.00,,,0.00,463.000000,,2013-07-05 17:32:00,
2013-07-05 12:01:00,80.0,46.0,-100.00,SW,233,11.0,20.0,30,0.00,,,0.00,728.000000,,2013-07-05 18:01:00,
2013-07-05 12:11:00,80.0,46.0,-100.00,SW,233,11.0,20.0,30,0.00,,,0.00,728.000000,,2013-07-05 18:11:00,
2013-07-05 12:22:00,80.0,46.0,-100.00,SW,233,11.0,20.0,30,0.00,,,0.00,728.000000,,2013-07-05 18:22:00,
2013-07-05 12:33:00,80.0,46.0,-100.00,SW,233,11.0,20.0,30,0.00,,,0.00,728.000000,,2013-07-05 18:33:00,
2013-07-05 13:01:00,84.0,45.0,-100.00,West,262,10.0,19.0,26,0.00,,,0.00,891.000000,,2013-07-05 19:01:00,
2013-07-05 13:12:00,84.0,45.0,-100.00,West,262,10.0,19.0,26,0.00,,,0.00,891.000000,,2013-07-05 19:12:00,
2013-07-05 13:22:00,84.0,45.0,-100.00,West,262,10.0,19.0,26,0.00,,,0.00,891.000000,,2013-07-05 19:22:00,
2013-07-05 13:33:00,84.0,45.0,-100.00,West,262,10.0,19.0,26,0.00,,,0.00,891.000000,,2013-07-05 19:33:00,
2013-07-05 14:01:00,85.0,43.0,-100.00,WSW,239,9.0,18.0,23,0.00,,,0.00,924.000000,,2013-07-05 20:01:00,
2013-07-05 14:11:00,85.0,43.0,-100.00,WSW,239,9.0,18.0,23,0.00,,,0.00,924.000000,,2013-07-05 20:11:00,
2013-07-05 14:22:00,85.0,43.0,-100.00,WSW,239,9.0,18.0,23,0.00,,,0.00,924.000000,,2013-07-05 20:22:00,
2013-07-05 14:33:00,85.0,43.0,-100.00,WSW,239,9.0,18.0,23,0.00,,,0.00,924.000000,,2013-07-05 20:33:00,
2013-07-05 15:01:00,86.0,43.0,-100.00,WSW,246,9.0,18.0,22,0.00,,,0.00,834.000000,,2013-07-05 21:01:00,
2013-07-05 15:11:00,86.0,43.0,-100.00,WSW,246,9.0,18.0,22,0.00,,,0.00,834.000000,,2013-07-05 21:11:00,
2013-07-05 15:21:00,86.0,43.0,-100.00,WSW,246,9.0,18.0,22,0.00,,,0.00,834.000000,,2013-07-05 21:21:00,
2013-07-05 15:34:00,86.0,43.0,-100.00,WSW,246,9.0,18.0,22,0.00,,,0.00,834.000000,,2013-07-05 21:34:00,
2013-07-05 16:01:00,85.0,43.0,-100.00,WSW,244,7.0,20.0,23,0.00,,,0.00,635.000000,,2013-07-05 22:01:00,
2013-07-05 16:11:00,85.0,43.0,-100.00,WSW,244,7.0,20.0,23,0.00,,,0.00,635.000000,,2013-07-05 22:11:00,
2013-07-05 16:21:00,85.0,43.0,-100.00,WSW,244,7.0,20.0,23,0.00,,,0.00,635.000000,,2013-07-05 22:21:00,
2013-07-05 16:33:00,85.0,43.0,-100.00,WSW,244,7.0,20.0,23,0.00,,,0.00,635.000000,,2013-07-05 22:33:00,
2013-07-05 17:02:00,76.0,45.0,-100.00,West,268,9.0,20.0,33,0.00,,,0.00,156.000000,,2013-07-05 23:02:00,
2013-07-05 17:11:00,76.0,45.0,-100.00,West,268,9.0,20.0,33,0.00,,,0.00,156.000000,,2013-07-05 23:11:00,
2013-07-05 17:23:00,76.0,45.0,-100.00,West,268,9.0,20.0,33,0.00,,,0.00,156.000000,,2013-07-05 23:23:00,
2013-07-05 17:32:00,76.0,45.0,-100.00,West,268,9.0,20.0,33,0.00,,,0.00,156.000000,,2013-07-05 23:32:00,
2013-07-05 18:01:00,72.0,46.0,-100.00,West,271,7.0,20.0,40,0.00,,,0.00,78.000000,,2013-07-06 00:01:00,
2013-07-05 18:11:00,72.0,46.0,-100.00,West,271,7.0,20.0,40,0.00,,,0.00,78.000000,,2013-07-06 00:11:00,
2013-07-05 18:22:00,72.0,46.0,-100.00,West,271,7.0,20.0,40,0.00,,,0.00,78.000000,,2013-07-06 00:22:00,
2013-07-05 18:33:00,72.0,46.0,-100.00,West,271,7.0,20.0,40,0.00,,,0.00,78.000000,,2013-07-06 00:33:00,
2013-07-05 19:02:00,73.0,39.0,-100.00,WNW,294,7.0,18.0,29,0.00,,,0.00,82.000000,,2013-07-06 01:02:00,
2013-07-05 19:12:00,73.0,39.0,-100.00,WNW,294,7.0,18.0,29,0.00,,,0.00,82.000000,,2013-07-06 01:12:00,
2013-07-05 19:22:00,73.0,39.0,-100.00,WNW,294,7.0,18.0,29,0.00,,,0.00,82.000000,,2013-07-06 01:22:00,
2013-07-05 19:33:00,73.0,39.0,-100.00,WNW,294,7.0,18.0,29,0.00,,,0.00,82.000000,,2013-07-06 01:33:00,
2013-07-05 20:02:00,70.0,45.0,-100.00,NW,307,7.0,19.0,40,0.00,,,0.00,25.000000,,2013-07-06 02:02:00,
2013-07-05 20:11:00,70.0,45.0,-100.00,NW,307,7.0,19.0,40,0.00,,,0.00,25.000000,,2013-07-06 02:11:00,
2013-07-05 20:22:00,70.0,45.0,-100.00,NW,307,7.0,19.0,40,0.00,,,0.00,25.000000,,2013-07-06 02:22:00,
2013-07-05 20:33:00,70.0,45.0,-100.00,NW,307,7.0,19.0,40,0.00,,,0.00,25.000000,,2013-07-06 02:33:00,
2013-07-05 21:02:00,71.0,40.0,-100.00,NW,310,5.0,14.0,33,0.00,,,0.00,18.000000,,2013-07-06 03:02:00,
2013-07-05 21:11:00,71.0,40.0,-100.00,NW,310,5.0,14.0,33,0.00,,,0.00,18.000000,,2013-07-06 03:11:00,
2013-07-05 21:22:00,71.0,40.0,-100.00,NW,310,5.0,14.0,33,0.00,,,0.00,18.000000,,2013-07-06 03:22:00,
2013-07-05 21:34:00,71.0,40.0,-100.00,NW,310,5.0,14.0,33,0.00,,,0.00,18.000000,,2013-07-06 03:34:00,
2013-07-05 22:02:00,67.0,40.0,-100.00,West,262,2.0,8.0,37,0.00,,,0.00,1.000000,,2013-07-06 04:02:00,
2013-07-05 22:12:00,67.0,40.0,-100.00,West,262,2.0,8.0,37,0.00,,,0.00,1.000000,,2013-07-06 04:12:00,
2013-07-05 22:22:00,67.0,40.0,-100.00,West,262,2.0,8.0,37,0.00,,,0.00,1.000000,,2013-07-06 04:22:00,
2013-07-05 22:33:00,67.0,40.0,-100.00,West,262,2.0,8.0,37,0.00,,,0.00,1.000000,,2013-07-06 04:33:00,
2013-07-05 23:02:00,63.0,41.0,-100.00,WNW,289,1.0,5.0,44,0.00,,,0.00,1.000000,,2013-07-06 05:02:00,
2013-07-05 23:12:00,63.0,41.0,-100.00,WNW,289,1.0,5.0,44,0.00,,,0.00,1.000000,,2013-07-06 05:12:00,
2013-07-05 23:22:00,63.0,41.0,-100.00,WNW,289,1.0,5.0,44,0.00,,,0.00,1.000000,,2013-07-06 05:22:00,
2013-07-05 23:33:00,63.0,41.0,-100.00,WNW,289,1.0,5.0,44,0.00,,,0.00,1.000000,,2013-07-06 05:33:00,